createdAt,value
2017-05-11T00:02:10.507Z,77.43
2017-05-11T00:04:37.474Z,77.39
2017-05-11T00:07:04.458Z,77.18
2017-05-11T00:09:31.443Z,77.57
2017-05-11T00:11:58.394Z,77.84
2017-05-11T00:14:25.374Z,77.58
2017-05-11T00:16:52.330Z,77.59
2017-05-11T00:19:19.317Z,77.78
2017-05-11T00:21:46.379Z,77.66
2017-05-11T00:24:13.377Z,77.42
2017-05-11T00:26:40.386Z,77.58
2017-05-11T00:29:07.361Z,77.82
2017-05-11T00:31:34.367Z,77.63
2017-05-11T00:34:01.347Z,77.74
2017-05-11T00:36:28.299Z,77.99
2017-05-11T00:38:55.302Z,77.76
2017-05-11T00:41:22.277Z,77.87
2017-05-11T00:43:49.283Z,77.77
2017-05-11T00:46:16.254Z,77.62
2017-05-11T00:48:43.222Z,77.67
2017-05-11T00:51:10.227Z,77.79
2017-05-11T00:53:37.188Z,77.89
2017-05-11T00:56:04.178Z,77.93
2017-05-11T00:58:31.153Z,77.99
2017-05-11T01:00:58.110Z,77.92
2017-05-11T01:03:25.102Z,78.05
2017-05-11T01:05:52.101Z,78.10
2017-05-11T01:08:19.143Z,78.20
2017-05-11T01:10:46.111Z,78.24
2017-05-11T01:13:13.074Z,78.01
2017-05-11T01:15:40.077Z,77.84
2017-05-11T01:18:07.037Z,78.20
2017-05-11T01:20:34.017Z,77.89
2017-05-11T01:23:00.994Z,77.90
2017-05-11T01:25:27.949Z,79.20
2017-05-11T01:27:54.911Z,79.22
2017-05-11T01:30:21.862Z,79.05
2017-05-11T01:32:48.833Z,78.81
2017-05-11T01:35:15.789Z,78.57
2017-05-11T01:37:42.762Z,78.82
2017-05-11T01:40:09.731Z,78.27
2017-05-11T01:42:36.698Z,78.58
2017-05-11T01:45:03.661Z,78.53
2017-05-11T01:47:30.621Z,78.16
2017-05-11T01:49:57.598Z,78.12
2017-05-11T01:52:24.569Z,77.98
2017-05-11T01:54:51.525Z,77.84
2017-05-11T01:57:18.497Z,77.97
2017-05-11T01:59:45.459Z,78.00
2017-05-11T02:02:12.405Z,77.88
2017-05-11T02:04:39.379Z,77.63
2017-05-11T02:07:06.349Z,77.57
2017-05-11T02:09:33.325Z,77.60
2017-05-11T02:12:00.283Z,77.62
2017-05-11T02:14:27.246Z,77.66
2017-05-11T02:16:54.240Z,77.72
2017-05-11T02:19:21.198Z,77.85
2017-05-11T02:21:48.176Z,77.59
2017-05-11T02:24:15.149Z,77.60
2017-05-11T02:26:42.130Z,77.64
2017-05-11T02:29:09.086Z,77.76
2017-05-11T02:31:36.065Z,77.75
2017-05-11T02:34:03.012Z,77.47
2017-05-11T02:36:29.990Z,77.54
2017-05-11T02:38:56.966Z,77.58
2017-05-11T02:41:23.933Z,77.73
2017-05-11T02:43:50.914Z,77.73
2017-05-11T02:46:17.860Z,77.34
2017-05-11T02:48:44.809Z,77.57
2017-05-11T02:51:11.776Z,77.63
2017-05-11T02:53:38.744Z,77.69
2017-05-11T02:56:05.725Z,77.81
2017-05-11T02:58:32.689Z,77.86
2017-05-11T03:00:59.646Z,77.90
2017-05-11T03:03:26.602Z,77.65
2017-05-11T03:05:53.545Z,77.80
2017-05-11T03:08:20.512Z,78.13
2017-05-11T03:10:47.485Z,78.14
2017-05-11T03:13:14.429Z,78.20
2017-05-11T03:15:41.405Z,77.93
2017-05-11T03:18:08.354Z,78.17
2017-05-11T03:20:35.334Z,78.08
2017-05-11T03:23:02.300Z,78.01
2017-05-11T03:25:29.253Z,78.11
2017-05-11T03:27:56.234Z,78.08
2017-05-11T03:30:23.186Z,78.37
2017-05-11T03:32:50.198Z,78.28
2017-05-11T03:35:17.173Z,78.32
2017-05-11T03:37:44.163Z,78.54
2017-05-11T03:40:11.137Z,78.61
2017-05-11T03:42:38.102Z,78.78
2017-05-11T03:45:05.086Z,78.63
2017-05-11T03:47:32.037Z,78.28
2017-05-11T03:49:58.990Z,78.35
2017-05-11T03:52:25.959Z,78.64
2017-05-11T03:54:52.942Z,78.12
2017-05-11T03:57:19.953Z,78.78
2017-05-11T03:59:46.939Z,78.42
2017-05-11T04:02:13.908Z,78.63
2017-05-11T04:04:40.893Z,78.75
2017-05-11T04:07:07.878Z,78.71
2017-05-11T04:09:34.854Z,78.75
2017-05-11T04:12:01.806Z,78.63
2017-05-11T04:14:28.762Z,78.61
2017-05-11T04:16:55.720Z,78.58
2017-05-11T04:19:22.673Z,78.24
2017-05-11T04:21:49.670Z,77.90
2017-05-11T04:24:16.649Z,78.00
2017-05-11T04:26:43.613Z,78.30
2017-05-11T04:29:10.580Z,78.11
2017-05-11T04:31:37.585Z,77.98
2017-05-11T04:34:04.625Z,78.32
2017-05-11T04:36:31.644Z,78.55
2017-05-11T04:38:58.634Z,77.72
2017-05-11T04:41:25.725Z,78.15
2017-05-11T04:43:52.702Z,78.27
2017-05-11T04:46:19.682Z,78.22
2017-05-11T04:48:46.626Z,78.22
2017-05-11T04:51:13.569Z,77.85
2017-05-11T04:53:40.545Z,77.82
2017-05-11T04:56:07.500Z,77.74
2017-05-11T04:58:34.606Z,78.00
2017-05-11T05:01:08.177Z,78.47
2017-05-11T05:03:35.143Z,78.42
2017-05-11T05:06:02.133Z,78.36
2017-05-11T05:08:29.084Z,78.37
2017-05-11T05:10:56.084Z,78.17
2017-05-11T05:13:23.037Z,78.28
2017-05-11T05:15:50.006Z,77.75
2017-05-11T05:18:16.952Z,77.39
2017-05-11T05:20:43.893Z,77.18
2017-05-11T05:23:10.852Z,77.02
2017-05-11T05:25:37.797Z,76.77
2017-05-11T05:28:04.773Z,76.56
2017-05-11T05:30:31.734Z,76.52
2017-05-11T05:32:58.685Z,76.45
2017-05-11T05:35:25.661Z,76.36
2017-05-11T05:37:52.613Z,76.21
2017-05-11T05:40:19.587Z,75.87
2017-05-11T05:42:46.556Z,75.69
2017-05-11T05:45:17.986Z,75.62
2017-05-11T05:47:44.954Z,75.56
2017-05-11T05:50:11.933Z,75.44
2017-05-11T05:52:38.952Z,75.15
2017-05-11T05:55:05.906Z,74.90
2017-05-11T05:57:32.850Z,74.84
2017-05-11T05:59:59.837Z,74.61
2017-05-11T06:02:26.829Z,74.45
2017-05-11T06:04:53.885Z,74.47
2017-05-11T06:07:20.851Z,74.27
2017-05-11T06:09:47.818Z,74.07
2017-05-11T06:12:14.807Z,74.09
2017-05-11T06:14:41.836Z,73.98
2017-05-11T06:17:08.832Z,73.91
2017-05-11T06:19:35.822Z,73.77
2017-05-11T06:22:02.793Z,73.76
2017-05-11T06:24:29.800Z,73.69
2017-05-11T06:26:57.135Z,73.64
2017-05-11T06:29:24.098Z,73.32
2017-05-11T06:31:52.225Z,73.24
2017-05-11T06:34:19.210Z,73.34
2017-05-11T06:36:46.197Z,73.16
2017-05-11T06:39:13.158Z,73.04
2017-05-11T06:41:40.219Z,72.63
2017-05-11T06:44:07.181Z,72.61
2017-05-11T06:46:34.133Z,72.56
2017-05-11T06:49:01.110Z,72.44
2017-05-11T06:51:28.062Z,72.16
2017-05-11T06:53:55.033Z,71.95
2017-05-11T06:56:22.994Z,71.67
2017-05-11T06:59:05.725Z,70.87
2017-05-11T07:01:32.681Z,70.16
2017-05-11T07:03:59.630Z,70.04
2017-05-11T07:06:26.605Z,69.73
2017-05-11T07:08:53.562Z,69.31
2017-05-11T07:11:30.529Z,69.30
2017-05-11T07:13:57.489Z,68.86
2017-05-11T07:16:24.469Z,68.68
2017-05-11T07:18:51.433Z,68.47
2017-05-11T07:21:18.381Z,68.29
2017-05-11T07:23:45.361Z,68.33
2017-05-11T07:26:12.323Z,68.14
2017-05-11T07:28:39.290Z,67.91
2017-05-11T07:31:06.254Z,67.90
2017-05-11T07:33:33.210Z,67.56
2017-05-11T07:36:00.174Z,67.28
2017-05-11T07:38:27.144Z,66.63
2017-05-11T07:40:54.093Z,66.62
2017-05-11T07:43:21.037Z,66.68
2017-05-11T07:45:47.993Z,66.31
2017-05-11T07:48:19.265Z,65.93
2017-05-11T07:50:46.214Z,65.38
2017-05-11T07:53:13.177Z,65.26
2017-05-11T07:55:40.121Z,64.96
2017-05-11T07:58:07.089Z,65.14
2017-05-11T08:00:34.035Z,65.04
2017-05-11T08:03:06.166Z,64.78
2017-05-11T08:05:33.134Z,64.44
2017-05-11T08:08:00.086Z,64.11
2017-05-11T08:10:27.062Z,63.53
2017-05-11T08:12:54.015Z,63.28
2017-05-11T08:15:20.959Z,62.60
2017-05-11T08:17:47.936Z,62.17
2017-05-11T08:20:14.898Z,62.03
2017-05-11T08:22:41.877Z,62.17
2017-05-11T08:25:08.830Z,61.86
2017-05-11T08:27:35.801Z,61.76
2017-05-11T08:30:02.766Z,61.22
2017-05-11T08:32:29.709Z,60.92
2017-05-11T08:34:56.677Z,61.10
2017-05-11T08:37:23.621Z,61.03
2017-05-11T08:39:50.562Z,61.13
2017-05-11T08:42:17.517Z,61.31
2017-05-11T08:44:44.465Z,61.33
2017-05-11T08:47:11.422Z,61.34
2017-05-11T08:49:38.389Z,61.78
2017-05-11T08:52:05.353Z,62.11
2017-05-11T08:54:32.329Z,62.65
2017-05-11T08:56:59.289Z,63.18
2017-05-11T08:59:26.282Z,63.42
2017-05-11T09:01:53.242Z,63.75
2017-05-11T09:04:20.213Z,64.35
2017-05-11T09:06:47.185Z,65.00
2017-05-11T09:09:14.150Z,65.63
2017-05-11T09:11:41.122Z,65.47
2017-05-11T09:14:08.084Z,65.17
2017-05-11T09:16:35.042Z,65.22
2017-05-11T09:19:02.012Z,65.43
2017-05-11T09:21:28.964Z,65.51
2017-05-11T09:23:55.941Z,65.77
2017-05-11T09:26:22.885Z,65.89
2017-05-11T09:28:49.841Z,65.53
2017-05-11T09:31:16.814Z,65.93
2017-05-11T09:33:43.766Z,65.47
2017-05-11T09:36:10.720Z,63.93
2017-05-11T09:38:37.666Z,63.22
2017-05-11T09:41:04.613Z,63.23
2017-05-11T09:43:31.581Z,62.62
2017-05-11T09:45:58.526Z,61.42
2017-05-11T09:48:25.485Z,61.23
2017-05-11T09:50:52.429Z,60.43
2017-05-11T09:53:19.371Z,59.28
2017-05-11T09:55:46.345Z,59.37
2017-05-11T09:58:13.289Z,59.79
2017-05-11T10:00:40.268Z,60.40
2017-05-11T10:03:07.205Z,60.48
2017-05-11T10:05:34.149Z,59.73
2017-05-11T10:08:01.113Z,58.72
2017-05-11T10:10:28.058Z,57.77
2017-05-11T10:12:55.033Z,57.44
2017-05-11T10:15:21.977Z,57.34
2017-05-11T10:17:48.917Z,56.82
2017-05-11T10:20:15.889Z,54.92
2017-05-11T10:22:42.834Z,55.09
2017-05-11T10:25:09.785Z,53.91
2017-05-11T10:27:36.737Z,54.48
2017-05-11T10:30:03.681Z,53.37
2017-05-11T10:32:30.640Z,52.87
2017-05-11T10:34:57.600Z,51.28
2017-05-11T10:37:24.566Z,51.13
2017-05-11T10:39:51.509Z,51.68
2017-05-11T10:42:18.466Z,52.11
2017-05-11T10:44:45.425Z,52.64
2017-05-11T10:47:12.364Z,52.59
2017-05-11T10:49:39.322Z,52.84
2017-05-11T10:52:06.269Z,52.57
2017-05-11T10:54:33.213Z,52.74
2017-05-11T10:57:00.177Z,51.73
2017-05-11T10:59:27.131Z,51.22
2017-05-11T11:01:54.097Z,50.41
2017-05-11T11:04:21.037Z,50.20
2017-05-11T11:06:47.987Z,50.30
2017-05-11T11:09:14.945Z,50.37
2017-05-11T11:11:41.905Z,49.42
2017-05-11T11:14:08.872Z,49.02
2017-05-11T11:16:35.815Z,49.02
2017-05-11T11:19:02.904Z,49.20
2017-05-11T11:21:29.867Z,49.45
2017-05-11T11:23:56.826Z,49.21
2017-05-11T11:26:23.798Z,49.32
2017-05-11T11:28:50.749Z,48.99
2017-05-11T11:31:17.698Z,48.63
2017-05-11T11:33:44.673Z,48.92
2017-05-11T11:36:11.618Z,48.20
2017-05-11T11:38:38.590Z,47.98
2017-05-11T11:41:05.534Z,48.17
2017-05-11T11:43:32.481Z,47.53
2017-05-11T11:45:59.440Z,47.81
2017-05-11T11:48:26.388Z,47.47
2017-05-11T11:50:53.325Z,47.06
2017-05-11T11:53:20.290Z,46.63
2017-05-11T11:55:49.151Z,46.54
2017-05-11T11:58:16.097Z,46.86
2017-05-11T12:00:43.221Z,47.20
2017-05-11T12:03:10.205Z,46.10
2017-05-11T12:05:49.530Z,45.34
2017-05-11T12:08:16.485Z,44.75
2017-05-11T12:10:43.450Z,45.29
2017-05-11T12:13:10.392Z,44.33
2017-05-11T12:15:37.345Z,44.04
2017-05-11T12:18:04.322Z,43.69
2017-05-11T12:20:31.271Z,44.16
2017-05-11T12:22:58.225Z,44.49
2017-05-11T12:25:25.197Z,43.39
2017-05-11T12:27:52.153Z,43.63
2017-05-11T12:30:19.101Z,42.86
2017-05-11T12:32:46.061Z,43.71
2017-05-11T12:35:13.021Z,44.02
2017-05-11T12:37:39.993Z,43.84
2017-05-11T12:40:06.954Z,42.39
2017-05-11T12:42:33.901Z,42.08
2017-05-11T12:45:00.878Z,42.24
2017-05-11T12:47:27.832Z,41.74
2017-05-11T12:49:54.834Z,41.81
2017-05-11T12:52:21.785Z,42.16
2017-05-11T12:54:48.738Z,41.96
2017-05-11T12:57:15.730Z,42.16
2017-05-11T12:59:42.677Z,42.43
2017-05-11T13:02:09.654Z,43.10
2017-05-11T13:04:36.618Z,43.34
2017-05-11T13:07:09.259Z,43.42
2017-05-11T13:09:36.481Z,43.59
2017-05-11T13:12:03.452Z,43.32
2017-05-11T13:14:30.420Z,42.91
2017-05-11T13:16:57.387Z,43.35
2017-05-11T13:19:24.361Z,43.48
2017-05-11T13:21:51.309Z,43.46
2017-05-11T13:24:18.253Z,44.23
2017-05-11T13:26:45.236Z,44.00
2017-05-11T13:29:12.198Z,44.37
2017-05-11T13:31:39.194Z,43.98
2017-05-11T13:34:06.145Z,43.82
2017-05-11T13:36:45.996Z,44.18
2017-05-11T13:39:25.232Z,44.59
2017-05-11T13:44:37.678Z,44.24
2017-05-11T13:47:04.666Z,44.39
2017-05-11T13:49:31.634Z,43.62
2017-05-11T13:51:58.582Z,43.11
2017-05-11T13:54:25.541Z,43.66
2017-05-11T13:56:52.489Z,43.46
2017-05-11T13:59:19.450Z,42.84
2017-05-11T14:01:46.402Z,42.23
2017-05-11T14:04:13.354Z,42.93
2017-05-11T14:06:40.324Z,42.42
2017-05-11T14:09:07.269Z,41.72
2017-05-11T14:11:34.250Z,41.11
2017-05-11T14:14:01.193Z,41.74
2017-05-11T14:16:28.157Z,42.17
2017-05-11T14:18:55.117Z,41.57
2017-05-11T14:21:22.061Z,41.63
2017-05-11T14:23:49.021Z,41.75
2017-05-11T14:26:15.993Z,41.89
2017-05-11T14:28:43.059Z,41.59
2017-05-11T14:31:10.012Z,42.12
2017-05-11T14:33:36.953Z,41.68
2017-05-11T14:36:03.930Z,41.78
2017-05-11T14:38:30.877Z,42.52
2017-05-11T14:40:57.822Z,42.41
2017-05-11T14:43:24.777Z,41.84
2017-05-11T14:45:51.714Z,41.88
2017-05-11T14:48:18.678Z,41.27
2017-05-11T14:50:45.617Z,41.01
2017-05-11T14:53:12.554Z,41.79
2017-05-11T14:55:52.190Z,41.43
2017-05-11T14:58:19.133Z,41.30
2017-05-11T15:02:56.568Z,40.19
2017-05-11T15:05:24.045Z,40.35
2017-05-11T15:07:51.575Z,40.27
2017-05-11T15:10:19.634Z,40.98
2017-05-11T15:15:35.921Z,39.85
2017-05-11T15:18:15.774Z,39.69
2017-05-11T15:35:13.476Z,39.63
2017-05-11T15:38:01.411Z,40.02
2017-05-11T15:46:41.472Z,39.62
2017-05-11T15:49:31.712Z,39.83
2017-05-11T16:00:38.160Z,41.80
2017-05-11T16:03:22.388Z,41.95
2017-05-11T16:05:49.990Z,42.09
2017-05-11T16:11:09.035Z,43.49
2017-05-11T16:13:56.785Z,42.80
2017-05-11T16:16:40.426Z,42.54
2017-05-11T16:19:21.829Z,42.36
2017-05-11T16:53:35.006Z,44.28
2017-05-11T17:48:35.116Z,47.63
2017-05-11T17:54:01.645Z,47.56
2017-05-11T17:59:24.644Z,48.59
2017-05-11T18:10:27.555Z,52.89
2017-05-11T18:16:24.991Z,55.87
2017-05-11T18:19:01.499Z,55.94
2017-05-11T18:33:06.958Z,56.83
2017-05-11T18:35:39.137Z,57.44
2017-05-11T18:38:16.409Z,57.76
2017-05-11T18:43:45.277Z,58.42
2017-05-11T19:03:59.746Z,59.52
2017-05-11T19:06:32.431Z,59.79
